createdAt,value
2024-01-29T00:00:29.163Z,189.85
2024-01-29T00:02:56.478Z,193.65
2024-01-29T00:14:02.051Z,183.52
2024-01-29T00:16:47.939Z,193.93
2024-01-29T00:23:33.383Z,141.88
2024-01-29T00:26:00.525Z,128.30
2024-01-29T00:32:41.943Z,91.15
2024-01-29T00:35:09.669Z,146.88
2024-01-29T00:59:46.074Z,202.85
2024-01-29T01:10:44.844Z,160.00
2024-01-29T01:17:37.094Z,167.02
2024-01-29T01:20:04.799Z,99.70
2024-01-29T01:26:51.095Z,119.68
2024-01-29T01:33:49.814Z,191.73
2024-01-29T01:36:16.802Z,207.60
2024-01-29T01:38:43.954Z,107.93
2024-01-29T01:41:10.939Z,273.90
2024-01-29T01:43:37.909Z,225.52
2024-01-29T01:46:05.129Z,163.43
2024-01-29T01:48:33.769Z,245.65
2024-01-29T01:51:01.713Z,411.05
2024-01-29T01:53:32.326Z,273.13
2024-01-29T01:56:02.592Z,206.50
2024-01-29T01:58:29.913Z,247.32
2024-01-29T02:00:59.923Z,154.05
2024-01-29T02:03:28.107Z,212.30
2024-01-29T02:05:56.060Z,322.90
2024-01-29T02:08:23.776Z,363.50
2024-01-29T02:10:51.931Z,206.38
2024-01-29T02:13:18.887Z,253.38
2024-01-29T02:15:45.895Z,106.60
2024-01-29T02:18:12.794Z,146.63
2024-01-29T02:20:39.804Z,222.15
2024-01-29T02:23:06.826Z,118.40
2024-01-29T02:25:35.209Z,209.95
2024-01-29T02:28:02.657Z,147.48
2024-01-29T02:30:29.794Z,154.35
2024-01-29T02:32:56.806Z,157.85
2024-01-29T02:35:24.819Z,85.53
2024-01-29T02:37:51.831Z,100.45
2024-01-29T02:40:18.837Z,126.72
2024-01-29T02:42:45.881Z,145.00
2024-01-29T02:45:12.810Z,132.40
2024-01-29T02:47:39.860Z,117.50
2024-01-29T02:50:07.864Z,112.70
2024-01-29T02:52:35.192Z,139.20
2024-01-29T02:55:02.408Z,96.00
2024-01-29T02:57:29.440Z,113.85
2024-01-29T02:59:56.296Z,92.72
2024-01-29T03:02:23.103Z,87.32
2024-01-29T03:04:50.235Z,152.15
2024-01-29T03:07:17.769Z,313.67
2024-01-29T03:09:44.695Z,221.00
2024-01-29T03:12:11.593Z,223.85
2024-01-29T03:14:39.508Z,196.27
2024-01-29T03:17:06.361Z,101.18
2024-01-29T03:19:33.503Z,196.95
2024-01-29T03:22:00.898Z,216.15
2024-01-29T03:24:27.810Z,174.90
2024-01-29T03:26:54.991Z,120.68
2024-01-29T03:29:21.917Z,114.50
2024-01-29T03:31:48.791Z,148.27
2024-01-29T03:34:15.831Z,126.10
2024-01-29T03:36:45.529Z,116.85
2024-01-29T03:39:13.557Z,115.65
2024-01-29T03:41:40.476Z,84.28
2024-01-29T03:44:07.701Z,133.27
2024-01-29T03:46:34.713Z,157.00
2024-01-29T03:49:01.847Z,150.73
2024-01-29T03:51:28.846Z,139.75
2024-01-29T03:53:55.738Z,102.22
2024-01-29T03:56:22.734Z,110.68
2024-01-29T03:58:49.633Z,119.47
2024-01-29T04:01:27.733Z,160.50
2024-01-29T04:03:55.082Z,119.95
2024-01-29T04:06:22.039Z,112.72
2024-01-29T04:08:49.136Z,75.43
2024-01-29T04:11:16.484Z,144.02
2024-01-29T04:13:43.449Z,95.40
2024-01-29T04:16:12.145Z,144.57
2024-01-29T04:18:40.265Z,81.63
2024-01-29T04:21:07.865Z,105.15
2024-01-29T04:23:36.600Z,131.10
2024-01-29T04:26:04.060Z,176.52
2024-01-29T04:28:31.039Z,144.10
2024-01-29T04:30:58.871Z,151.55
2024-01-29T04:33:28.027Z,124.90
2024-01-29T04:35:54.989Z,153.30
2024-01-29T04:38:21.883Z,172.20
2024-01-29T04:40:48.763Z,75.13
2024-01-29T04:43:15.646Z,69.03
2024-01-29T04:45:43.643Z,75.18
2024-01-29T04:48:10.680Z,105.15
2024-01-29T04:50:37.797Z,87.15
2024-01-29T04:53:05.091Z,71.78
2024-01-29T04:55:32.062Z,72.00
2024-01-29T04:57:59.289Z,76.07
2024-01-29T05:00:26.279Z,65.65
2024-01-29T05:02:53.449Z,102.75
2024-01-29T05:05:20.467Z,119.88
2024-01-29T05:07:47.428Z,123.28
2024-01-29T05:10:14.585Z,103.60
2024-01-29T05:12:41.530Z,162.10
2024-01-29T05:15:08.789Z,81.00
2024-01-29T05:17:36.129Z,71.25
2024-01-29T05:20:03.435Z,72.85
2024-01-29T05:22:30.538Z,80.65
2024-01-29T05:24:57.449Z,108.45
2024-01-29T05:27:24.453Z,101.20
2024-01-29T05:29:51.475Z,71.07
2024-01-29T05:32:18.875Z,69.47
2024-01-29T05:34:45.890Z,141.73
2024-01-29T05:37:12.958Z,134.88
2024-01-29T05:39:39.972Z,142.02
2024-01-29T05:42:07.138Z,129.25
2024-01-29T05:44:34.079Z,97.32
2024-01-29T05:47:01.205Z,166.05
2024-01-29T05:49:28.329Z,213.05
2024-01-29T05:51:55.631Z,172.60
2024-01-29T05:54:22.719Z,163.43
2024-01-29T05:56:51.601Z,120.53
2024-01-29T05:59:18.973Z,179.82
2024-01-29T06:01:46.179Z,160.75
2024-01-29T06:04:13.348Z,131.38
2024-01-29T06:06:42.523Z,117.63
2024-01-29T06:09:10.884Z,110.97
2024-01-29T06:11:38.522Z,91.97
2024-01-29T06:14:06.029Z,180.45
2024-01-29T06:16:33.704Z,124.68
2024-01-29T06:19:00.984Z,190.30
2024-01-29T06:21:27.977Z,192.48
2024-01-29T06:23:55.035Z,210.75
2024-01-29T06:26:22.243Z,180.93
2024-01-29T06:28:49.170Z,184.93
2024-01-29T06:31:16.182Z,242.10
2024-01-29T06:33:43.092Z,155.52
2024-01-29T06:36:16.195Z,334.42
2024-01-29T06:38:43.026Z,238.25
2024-01-29T06:41:19.039Z,218.95
2024-01-29T06:43:45.976Z,248.00
2024-01-29T06:46:12.960Z,267.13
2024-01-29T06:48:40.360Z,265.77
2024-01-29T06:51:07.591Z,187.38
2024-01-29T06:53:35.957Z,267.77
2024-01-29T06:56:08.885Z,213.02
2024-01-29T06:58:39.427Z,265.70
2024-01-29T07:01:07.321Z,220.30
2024-01-29T07:03:34.488Z,159.43
2024-01-29T07:06:02.968Z,197.23
2024-01-29T07:08:30.528Z,146.20
2024-01-29T07:10:57.510Z,180.20
2024-01-29T07:13:24.847Z,154.10
2024-01-29T07:15:51.744Z,141.13
2024-01-29T07:18:19.378Z,83.15
2024-01-29T07:20:46.850Z,118.03
2024-01-29T07:23:15.437Z,189.43
2024-01-29T07:25:42.295Z,124.13
2024-01-29T07:28:09.925Z,141.90
2024-01-29T07:30:37.130Z,66.75
2024-01-29T07:33:05.141Z,46.80
2024-01-29T07:35:33.570Z,115.03
2024-01-29T07:38:00.519Z,59.95
2024-01-29T07:40:27.441Z,49.55
2024-01-29T07:42:54.725Z,45.75
2024-01-29T07:45:21.743Z,51.20
2024-01-29T07:47:48.715Z,73.70
2024-01-29T07:50:15.847Z,70.50
2024-01-29T07:52:43.144Z,105.93
2024-01-29T07:55:10.335Z,65.47
2024-01-29T07:57:39.036Z,54.05
2024-01-29T08:00:06.952Z,91.13
2024-01-29T08:02:34.240Z,90.25
2024-01-29T08:05:01.379Z,105.05
2024-01-29T08:07:28.305Z,75.72
2024-01-29T08:09:55.237Z,165.25
2024-01-29T08:12:22.628Z,175.35
2024-01-29T08:14:50.538Z,300.52
2024-01-29T08:17:17.941Z,364.98
2024-01-29T08:19:45.144Z,240.63
2024-01-29T08:22:12.218Z,346.35
2024-01-29T08:24:40.089Z,216.23
2024-01-29T08:27:06.961Z,336.73
2024-01-29T08:29:33.902Z,113.15
2024-01-29T08:32:00.991Z,184.45
2024-01-29T08:34:30.979Z,130.02
2024-01-29T08:36:59.944Z,222.10
2024-01-29T08:39:27.104Z,129.05
2024-01-29T08:41:54.277Z,94.28
2024-01-29T08:44:21.922Z,138.32
2024-01-29T08:46:48.903Z,131.32
2024-01-29T08:49:17.824Z,87.05
2024-01-29T08:51:46.478Z,120.43
2024-01-29T08:54:13.667Z,159.23
2024-01-29T08:56:41.306Z,163.60
2024-01-29T08:59:09.213Z,114.30
2024-01-29T09:01:36.188Z,85.07
2024-01-29T09:04:03.710Z,116.28
2024-01-29T09:06:30.802Z,79.88
2024-01-29T09:08:57.633Z,78.80
2024-01-29T09:11:24.758Z,107.50
2024-01-29T09:13:51.651Z,86.82
2024-01-29T09:16:18.577Z,69.00
2024-01-29T09:18:45.629Z,74.43
2024-01-29T09:21:12.824Z,124.20
2024-01-29T09:23:40.374Z,118.20
2024-01-29T09:26:08.132Z,90.80
2024-01-29T09:28:36.331Z,89.65
2024-01-29T09:31:03.526Z,105.00
2024-01-29T09:33:30.929Z,78.45
2024-01-29T09:35:57.973Z,96.10
2024-01-29T09:38:24.889Z,77.80
2024-01-29T09:40:53.310Z,86.97
2024-01-29T09:43:22.489Z,86.68
2024-01-29T09:45:54.032Z,75.80
2024-01-29T09:48:22.922Z,106.53
2024-01-29T09:50:50.688Z,107.28
2024-01-29T09:53:22.310Z,97.30
2024-01-29T09:55:49.861Z,86.10
2024-01-29T09:58:17.428Z,72.03
2024-01-29T10:00:44.840Z,77.28
2024-01-29T10:03:22.441Z,72.93
2024-01-29T10:05:51.972Z,75.07
2024-01-29T10:08:20.313Z,69.82
2024-01-29T10:10:49.537Z,75.97
2024-01-29T10:13:16.648Z,106.65
2024-01-29T10:15:46.601Z,80.07
2024-01-29T10:18:15.202Z,81.35
2024-01-29T10:20:42.403Z,67.88
2024-01-29T10:23:09.303Z,81.50
2024-01-29T10:25:40.466Z,77.55
2024-01-29T10:28:12.340Z,88.22
2024-01-29T10:30:43.402Z,77.35
2024-01-29T10:33:10.941Z,71.10
2024-01-29T10:35:39.202Z,81.32
2024-01-29T10:38:07.502Z,65.60
2024-01-29T10:40:36.480Z,69.00
2024-01-29T10:43:04.770Z,80.53
2024-01-29T10:45:39.503Z,72.93
2024-01-29T10:48:13.758Z,68.00
2024-01-29T10:50:42.691Z,69.97
2024-01-29T10:53:14.651Z,78.65
2024-01-29T10:55:42.717Z,75.68
2024-01-29T10:58:12.008Z,82.88
2024-01-29T11:00:42.398Z,84.07
2024-01-29T11:03:11.822Z,87.30
2024-01-29T11:05:40.543Z,72.03
2024-01-29T11:08:15.911Z,70.82
2024-01-29T11:10:43.171Z,76.13
2024-01-29T11:13:13.388Z,66.32
2024-01-29T11:15:42.598Z,59.80
2024-01-29T11:18:12.450Z,71.30
2024-01-29T11:20:40.670Z,80.18
2024-01-29T11:23:19.134Z,66.38
2024-01-29T11:25:52.513Z,65.88
2024-01-29T11:28:20.272Z,65.55
2024-01-29T11:30:51.446Z,62.50
2024-01-29T11:33:20.176Z,67.57
2024-01-29T11:35:48.310Z,70.75
2024-01-29T11:38:21.799Z,71.97
2024-01-29T11:40:49.065Z,65.82
2024-01-29T11:43:19.068Z,74.18
2024-01-29T11:45:49.090Z,64.20
2024-01-29T11:48:18.490Z,65.88
2024-01-29T11:50:48.309Z,55.55
2024-01-29T11:53:17.823Z,69.80
2024-01-29T11:55:47.858Z,69.22
2024-01-29T11:58:17.948Z,69.57
2024-01-29T12:00:46.198Z,66.63
2024-01-29T12:03:18.850Z,69.45
2024-01-29T12:05:46.761Z,82.97
2024-01-29T12:08:15.277Z,63.03
2024-01-29T12:10:46.579Z,72.85
2024-01-29T12:13:14.308Z,70.75
2024-01-29T12:15:42.128Z,71.53
2024-01-29T12:18:24.419Z,60.63
2024-01-29T12:20:52.469Z,76.03
2024-01-29T12:23:22.748Z,69.55
2024-01-29T12:25:58.944Z,71.47
2024-01-29T12:28:27.836Z,73.00
2024-01-29T12:31:09.658Z,77.72
2024-01-29T12:33:37.667Z,66.97
2024-01-29T12:36:16.368Z,74.10
2024-01-29T12:38:45.068Z,81.88
2024-01-29T12:41:12.146Z,66.55
2024-01-29T12:43:40.776Z,74.43
2024-01-29T12:46:13.115Z,74.80
2024-01-29T12:48:40.811Z,69.88
2024-01-29T12:51:12.663Z,66.75
2024-01-29T12:53:41.244Z,61.40
2024-01-29T12:56:08.325Z,75.88
2024-01-29T12:58:35.202Z,59.47
2024-01-29T13:01:02.446Z,67.97
2024-01-29T13:03:29.937Z,59.92
2024-01-29T13:05:58.806Z,73.90
2024-01-29T13:08:27.990Z,70.30
2024-01-29T13:10:55.613Z,80.85
2024-01-29T13:13:22.882Z,73.40
2024-01-29T13:15:54.140Z,65.50
2024-01-29T13:18:22.690Z,81.00
2024-01-29T13:20:49.932Z,66.57
2024-01-29T13:23:17.947Z,70.82
2024-01-29T13:25:45.762Z,64.88
2024-01-29T13:28:13.250Z,62.75
2024-01-29T13:30:40.294Z,64.13
2024-01-29T13:33:08.088Z,64.03
2024-01-29T13:35:35.229Z,68.93
2024-01-29T13:38:02.458Z,69.85
2024-01-29T13:40:29.424Z,72.28
2024-01-29T13:42:58.119Z,76.75
2024-01-29T13:45:26.482Z,63.03
2024-01-29T13:47:54.322Z,68.93
2024-01-29T13:50:21.792Z,64.32
2024-01-29T13:52:48.875Z,84.28
2024-01-29T13:55:16.260Z,63.42
2024-01-29T13:57:43.894Z,63.30
2024-01-29T14:00:12.202Z,71.07
2024-01-29T14:05:31.485Z,62.80
2024-01-29T14:07:58.682Z,75.90
2024-01-29T14:10:25.983Z,63.83
2024-01-29T14:12:52.986Z,60.80
2024-01-29T14:15:20.239Z,60.35
2024-01-29T14:17:47.302Z,64.05
2024-01-29T14:20:14.994Z,60.50
2024-01-29T14:22:42.144Z,56.17
2024-01-29T14:25:09.234Z,72.53
2024-01-29T14:27:36.198Z,68.10
2024-01-29T14:30:03.427Z,65.80
2024-01-29T14:32:30.555Z,57.80
2024-01-29T14:34:57.731Z,58.58
2024-01-29T14:37:25.575Z,67.18
2024-01-29T14:39:52.556Z,64.97
2024-01-29T14:42:19.532Z,61.85
2024-01-29T14:44:46.552Z,55.38
2024-01-29T14:47:17.433Z,62.83
2024-01-29T14:49:45.095Z,79.28
2024-01-29T14:52:13.373Z,68.72
2024-01-29T14:54:40.877Z,55.92
2024-01-29T14:57:08.250Z,57.90
2024-01-29T14:59:35.167Z,68.97
2024-01-29T15:02:07.927Z,62.63
2024-01-29T15:04:35.176Z,52.75
2024-01-29T15:07:02.467Z,69.50
2024-01-29T15:09:31.384Z,63.33
2024-01-29T15:11:58.359Z,72.75
2024-01-29T15:14:25.364Z,69.47
2024-01-29T15:17:03.098Z,63.42
2024-01-29T15:19:30.801Z,68.53
2024-01-29T15:21:58.141Z,64.00
2024-01-29T15:24:25.430Z,58.92
2024-01-29T15:26:53.859Z,65.55
2024-01-29T15:29:21.165Z,58.38
2024-01-29T15:31:48.860Z,63.88
2024-01-29T15:34:19.186Z,59.70
2024-01-29T15:36:46.677Z,67.97
2024-01-29T15:39:14.532Z,56.05
2024-01-29T15:41:42.220Z,66.85
2024-01-29T15:44:09.125Z,57.83
2024-01-29T15:46:45.347Z,59.60
2024-01-29T15:49:12.830Z,56.45
2024-01-29T15:51:41.161Z,63.08
2024-01-29T15:54:08.308Z,57.80
2024-01-29T15:56:35.261Z,73.22
2024-01-29T15:59:02.584Z,59.70
2024-01-29T16:01:29.580Z,59.75
2024-01-29T16:03:57.156Z,56.67
2024-01-29T16:06:24.951Z,56.72
2024-01-29T16:08:51.839Z,62.28
2024-01-29T16:11:18.915Z,62.92
2024-01-29T16:13:45.755Z,59.60
2024-01-29T16:16:15.931Z,58.65
2024-01-29T16:18:44.027Z,63.53
2024-01-29T16:21:19.617Z,58.33
2024-01-29T16:23:47.670Z,64.40
2024-01-29T16:26:22.383Z,64.22
2024-01-29T16:28:49.423Z,76.63
2024-01-29T16:31:16.687Z,55.38
2024-01-29T16:33:44.265Z,61.72
2024-01-29T16:36:20.156Z,64.43
2024-01-29T16:38:48.124Z,54.45
2024-01-29T16:41:25.291Z,59.63
2024-01-29T16:43:53.698Z,67.57
2024-01-29T16:46:24.226Z,55.22
2024-01-29T16:48:51.644Z,60.08
2024-01-29T16:51:26.627Z,63.03
2024-01-29T16:53:54.888Z,53.40
2024-01-29T16:56:27.926Z,61.20
2024-01-29T16:58:55.775Z,66.22
2024-01-29T17:01:23.821Z,57.55
2024-01-29T17:03:50.954Z,64.70
2024-01-29T17:06:18.212Z,59.28
2024-01-29T17:08:45.237Z,57.40
2024-01-29T17:11:14.149Z,71.95
2024-01-29T17:13:42.909Z,69.60
2024-01-29T17:16:10.001Z,54.83
2024-01-29T17:18:38.562Z,55.25
2024-01-29T17:21:05.817Z,79.43
2024-01-29T17:23:32.890Z,61.47
2024-01-29T17:26:00.064Z,56.22
2024-01-29T17:28:27.662Z,60.55
2024-01-29T17:30:55.066Z,62.58
2024-01-29T17:33:22.844Z,61.80
2024-01-29T17:35:49.810Z,64.80
2024-01-29T17:38:16.714Z,71.22
2024-01-29T17:40:44.053Z,76.32
2024-01-29T17:43:12.134Z,64.22
2024-01-29T17:45:39.496Z,64.60
2024-01-29T17:48:07.399Z,73.35
2024-01-29T17:50:34.384Z,70.15
2024-01-29T17:53:04.170Z,66.63
2024-01-29T17:55:31.620Z,67.05
2024-01-29T17:57:58.822Z,59.65
2024-01-29T18:00:26.250Z,62.58
2024-01-29T18:02:53.120Z,62.35
2024-01-29T18:05:21.678Z,65.65
2024-01-29T18:07:49.066Z,60.80
2024-01-29T18:10:16.351Z,60.65
2024-01-29T18:12:43.665Z,67.78
2024-01-29T18:15:10.746Z,61.15
2024-01-29T18:17:38.192Z,72.47
2024-01-29T18:20:05.775Z,62.03
2024-01-29T18:22:32.726Z,55.80
2024-01-29T18:24:59.802Z,70.43
2024-01-29T18:27:27.884Z,60.15
2024-01-29T18:29:54.812Z,54.53
2024-01-29T18:32:21.775Z,63.85
2024-01-29T18:35:48.492Z,61.92
2024-01-29T18:38:15.415Z,69.28
2024-01-29T18:40:42.255Z,77.18
2024-01-29T18:43:09.195Z,66.75
2024-01-29T18:45:36.152Z,61.53
2024-01-29T18:48:03.170Z,71.15
2024-01-29T18:50:30.134Z,65.68
2024-01-29T18:52:57.048Z,64.05
2024-01-29T18:55:25.193Z,69.80
2024-01-29T18:57:52.218Z,63.25
2024-01-29T19:00:19.649Z,77.18
2024-01-29T19:02:46.661Z,72.68
2024-01-29T19:05:14.460Z,77.78
2024-01-29T19:07:43.300Z,74.75
2024-01-29T19:10:11.245Z,73.03
2024-01-29T19:12:39.403Z,73.07
2024-01-29T19:15:07.098Z,69.75
2024-01-29T19:17:34.102Z,74.63
2024-01-29T19:20:01.258Z,67.03
2024-01-29T19:22:28.254Z,70.22
2024-01-29T19:24:55.283Z,74.38
2024-01-29T19:27:22.557Z,61.58
2024-01-29T19:29:49.457Z,71.80
2024-01-29T19:32:17.388Z,72.53
2024-01-29T19:34:44.441Z,75.45
2024-01-29T19:37:11.610Z,80.13
2024-01-29T19:39:40.334Z,71.20
2024-01-29T19:42:07.416Z,74.88
2024-01-29T19:44:34.468Z,71.57
2024-01-29T19:47:01.472Z,75.15
2024-01-29T19:49:28.458Z,85.05
2024-01-29T19:51:55.748Z,67.50
2024-01-29T19:54:22.726Z,66.63
2024-01-29T19:56:49.743Z,71.50
2024-01-29T19:59:19.395Z,77.22
2024-01-29T20:01:47.050Z,76.85
2024-01-29T20:04:14.535Z,70.55
2024-01-29T20:06:41.508Z,74.20
2024-01-29T20:09:08.793Z,70.35
2024-01-29T20:11:35.615Z,64.50
2024-01-29T20:14:02.656Z,77.13
2024-01-29T20:16:29.974Z,73.68
2024-01-29T20:18:57.028Z,71.32
2024-01-29T20:21:24.016Z,71.43
2024-01-29T20:23:54.985Z,89.32
2024-01-29T20:26:22.168Z,76.20
2024-01-29T20:28:49.117Z,75.63
2024-01-29T20:31:26.923Z,73.32
2024-01-29T20:33:54.634Z,83.97
2024-01-29T20:36:22.337Z,69.68
2024-01-29T20:38:50.196Z,70.72
2024-01-29T20:41:32.182Z,59.05
2024-01-29T20:44:05.968Z,71.07
2024-01-29T20:46:33.056Z,97.75
2024-01-29T20:49:02.284Z,95.03
2024-01-29T20:51:29.226Z,76.18
2024-01-29T20:53:56.273Z,114.50
2024-01-29T20:56:25.218Z,75.25
2024-01-29T20:58:52.792Z,95.38
2024-01-29T21:01:20.478Z,76.20
2024-01-29T21:03:47.812Z,86.18
2024-01-29T21:06:15.277Z,85.63
2024-01-29T21:08:42.306Z,85.72
2024-01-29T21:11:09.244Z,88.43
2024-01-29T21:13:36.399Z,95.47
2024-01-29T21:16:03.403Z,90.85
2024-01-29T21:18:30.332Z,100.63
2024-01-29T21:20:57.263Z,93.07
2024-01-29T21:23:24.250Z,94.15
2024-01-29T21:25:51.127Z,89.32
2024-01-29T21:28:18.187Z,98.93
2024-01-29T21:30:45.475Z,88.03
2024-01-29T21:33:13.700Z,79.68
2024-01-29T21:35:40.657Z,81.38
2024-01-29T21:38:07.540Z,74.50
2024-01-29T21:40:34.649Z,75.68
2024-01-29T21:43:02.215Z,69.93
2024-01-29T21:45:29.203Z,73.63
2024-01-29T21:47:56.299Z,74.68
2024-01-29T21:50:23.297Z,84.93
2024-01-29T21:52:50.438Z,84.60
2024-01-29T21:55:19.566Z,79.85
2024-01-29T21:57:46.562Z,74.15
2024-01-29T22:00:13.803Z,78.95
2024-01-29T22:02:40.697Z,77.75
2024-01-29T22:05:07.962Z,146.63
2024-01-29T22:07:34.979Z,110.78
2024-01-29T22:10:02.180Z,75.40
2024-01-29T22:12:29.142Z,83.20
2024-01-29T22:14:56.080Z,79.47
2024-01-29T22:17:23.020Z,84.00
2024-01-29T22:19:51.428Z,75.40
2024-01-29T22:22:19.911Z,111.43
2024-01-29T22:24:48.396Z,94.57
2024-01-29T22:27:15.287Z,91.93
2024-01-29T22:29:42.170Z,97.18
2024-01-29T22:32:09.197Z,94.10
2024-01-29T22:34:36.245Z,98.70
2024-01-29T22:37:03.266Z,90.15
2024-01-29T22:39:30.145Z,90.68
2024-01-29T22:41:56.977Z,89.80
2024-01-29T22:44:23.834Z,87.10
2024-01-29T22:46:50.700Z,82.78
2024-01-29T22:49:18.752Z,95.05
2024-01-29T22:51:46.084Z,79.97
2024-01-29T22:54:13.354Z,80.32
2024-01-29T22:56:40.742Z,88.43
2024-01-29T22:59:07.709Z,79.90
2024-01-29T23:01:35.354Z,79.45
2024-01-29T23:04:03.237Z,72.20
2024-01-29T23:06:30.861Z,88.65
2024-01-29T23:08:57.818Z,80.55
2024-01-29T23:11:24.790Z,122.25
2024-01-29T23:13:51.978Z,108.50
2024-01-29T23:16:18.931Z,235.38
2024-01-29T23:18:46.181Z,165.75
2024-01-29T23:21:13.258Z,166.77
2024-01-29T23:23:40.405Z,129.77
2024-01-29T23:26:07.298Z,146.38
2024-01-29T23:28:35.571Z,95.78
2024-01-29T23:31:02.751Z,129.77
2024-01-29T23:33:29.806Z,123.68
2024-01-29T23:35:56.914Z,76.63
2024-01-29T23:38:24.024Z,100.82
2024-01-29T23:40:51.016Z,105.68
2024-01-29T23:43:18.173Z,101.47
2024-01-29T23:45:45.629Z,69.22
2024-01-29T23:48:12.892Z,66.57
2024-01-29T23:50:39.793Z,80.95
2024-01-29T23:53:07.007Z,62.55
2024-01-29T23:55:33.977Z,75.45
2024-01-29T23:58:00.820Z,70.60
